sensor_id;sensor_type;location;lat;lon;timestamp;P1;durP1;ratioP1;P2;durP2;ratioP2
14778;SDS011;7481;53.750;10.570;2022-09-24T00:00:02;5.60;;;4.33;;
14778;SDS011;7481;53.750;10.570;2022-09-24T00:02:49;6.93;;;3.70;;
14778;SDS011;7481;53.750;10.570;2022-09-24T00:05:39;4.53;;;3.70;;
14778;SDS011;7481;53.750;10.570;2022-09-24T00:08:27;5.13;;;3.70;;
14778;SDS011;7481;53.750;10.570;2022-09-24T00:11:14;6.63;;;4.10;;
14778;SDS011;7481;53.750;10.570;2022-09-24T00:14:03;5.90;;;3.93;;
14778;SDS011;7481;53.750;10.570;2022-09-24T00:16:52;4.70;;;4.07;;
14778;SDS011;7481;53.750;10.570;2022-09-24T00:19:39;4.90;;;4.40;;
14778;SDS011;7481;53.750;10.570;2022-09-24T00:22:26;5.60;;;4.50;;
14778;SDS011;7481;53.750;10.570;2022-09-24T00:25:13;6.80;;;4.20;;
14778;SDS011;7481;53.750;10.570;2022-09-24T00:28:18;5.63;;;4.23;;
14778;SDS011;7481;53.750;10.570;2022-09-24T00:31:05;7.27;;;4.17;;
14778;SDS011;7481;53.750;10.570;2022-09-24T00:33:53;4.40;;;3.93;;
14778;SDS011;7481;53.750;10.570;2022-09-24T00:36:40;6.27;;;4.17;;
14778;SDS011;7481;53.750;10.570;2022-09-24T00:39:27;5.20;;;4.53;;
14778;SDS011;7481;53.750;10.570;2022-09-24T00:42:14;6.07;;;4.23;;
14778;SDS011;7481;53.750;10.570;2022-09-24T00:45:04;5.97;;;4.47;;
14778;SDS011;7481;53.750;10.570;2022-09-24T00:47:54;6.03;;;4.40;;
14778;SDS011;7481;53.750;10.570;2022-09-24T00:50:43;6.47;;;4.10;;
14778;SDS011;7481;53.750;10.570;2022-09-24T00:53:30;6.63;;;4.70;;
14778;SDS011;7481;53.750;10.570;2022-09-24T00:56:19;5.47;;;4.30;;
14778;SDS011;7481;53.750;10.570;2022-09-24T00:59:07;4.63;;;4.20;;
14778;SDS011;7481;53.750;10.570;2022-09-24T01:01:56;5.37;;;4.37;;
14778;SDS011;7481;53.750;10.570;2022-09-24T01:04:44;5.17;;;4.00;;
14778;SDS011;7481;53.750;10.570;2022-09-24T01:07:32;6.37;;;4.40;;
14778;SDS011;7481;53.750;10.570;2022-09-24T01:10:22;6.20;;;4.77;;
14778;SDS011;7481;53.750;10.570;2022-09-24T01:13:41;6.80;;;4.97;;
14778;SDS011;7481;53.750;10.570;2022-09-24T01:32:50;5.47;;;4.30;;
14778;SDS011;7481;53.750;10.570;2022-09-24T01:35:42;5.67;;;4.70;;
14778;SDS011;7481;53.750;10.570;2022-09-24T01:38:31;6.23;;;4.63;;
14778;SDS011;7481;53.750;10.570;2022-09-24T01:41:23;4.97;;;4.27;;
14778;SDS011;7481;53.750;10.570;2022-09-24T01:44:11;5.47;;;4.97;;
14778;SDS011;7481;53.750;10.570;2022-09-24T01:46:58;5.13;;;4.53;;
14778;SDS011;7481;53.750;10.570;2022-09-24T01:49:46;5.03;;;4.53;;
14778;SDS011;7481;53.750;10.570;2022-09-24T01:52:34;6.20;;;5.27;;
14778;SDS011;7481;53.750;10.570;2022-09-24T01:55:27;4.60;;;4.03;;
14778;SDS011;7481;53.750;10.570;2022-09-24T01:58:24;5.77;;;4.13;;
14778;SDS011;7481;53.750;10.570;2022-09-24T02:01:22;5.90;;;4.00;;
14778;SDS011;7481;53.750;10.570;2022-09-24T02:04:15;4.77;;;4.27;;
14778;SDS011;7481;53.750;10.570;2022-09-24T02:07:25;5.93;;;4.90;;
14778;SDS011;7481;53.750;10.570;2022-09-24T02:10:19;5.37;;;4.67;;
14778;SDS011;7481;53.750;10.570;2022-09-24T02:13:07;5.73;;;4.83;;
14778;SDS011;7481;53.750;10.570;2022-09-24T02:15:58;5.50;;;4.30;;
14778;SDS011;7481;53.750;10.570;2022-09-24T02:18:50;6.37;;;5.40;;
14778;SDS011;7481;53.750;10.570;2022-09-24T02:21:41;6.83;;;6.07;;
14778;SDS011;7481;53.750;10.570;2022-09-24T02:24:33;7.50;;;6.63;;
14778;SDS011;7481;53.750;10.570;2022-09-24T02:27:28;8.47;;;5.70;;
14778;SDS011;7481;53.750;10.570;2022-09-24T02:30:16;7.03;;;5.67;;
14778;SDS011;7481;53.750;10.570;2022-09-24T02:33:04;6.50;;;4.93;;
14778;SDS011;7481;53.750;10.570;2022-09-24T02:36:13;5.57;;;5.07;;
14778;SDS011;7481;53.750;10.570;2022-09-24T02:39:01;7.47;;;4.97;;
14778;SDS011;7481;53.750;10.570;2022-09-24T02:41:48;6.03;;;5.13;;
14778;SDS011;7481;53.750;10.570;2022-09-24T02:44:37;9.20;;;5.30;;
14778;SDS011;7481;53.750;10.570;2022-09-24T02:47:24;6.83;;;4.70;;
14778;SDS011;7481;53.750;10.570;2022-09-24T02:50:12;6.00;;;5.30;;
14778;SDS011;7481;53.750;10.570;2022-09-24T02:52:58;7.50;;;5.63;;
14778;SDS011;7481;53.750;10.570;2022-09-24T02:55:45;5.93;;;4.77;;
14778;SDS011;7481;53.750;10.570;2022-09-24T02:58:33;6.23;;;4.93;;
14778;SDS011;7481;53.750;10.570;2022-09-24T03:01:22;6.37;;;5.10;;
14778;SDS011;7481;53.750;10.570;2022-09-24T03:04:10;6.37;;;4.97;;
14778;SDS011;7481;53.750;10.570;2022-09-24T03:06:57;7.40;;;4.80;;
14778;SDS011;7481;53.750;10.570;2022-09-24T03:09:44;7.90;;;4.70;;
14778;SDS011;7481;53.750;10.570;2022-09-24T03:12:31;6.37;;;5.27;;
14778;SDS011;7481;53.750;10.570;2022-09-24T03:15:18;5.70;;;4.97;;
14778;SDS011;7481;53.750;10.570;2022-09-24T03:18:05;6.20;;;4.90;;
14778;SDS011;7481;53.750;10.570;2022-09-24T03:20:56;6.80;;;4.67;;
14778;SDS011;7481;53.750;10.570;2022-09-24T03:23:44;5.67;;;4.53;;
14778;SDS011;7481;53.750;10.570;2022-09-24T03:26:31;5.60;;;5.10;;
14778;SDS011;7481;53.750;10.570;2022-09-24T03:29:18;6.43;;;5.30;;
14778;SDS011;7481;53.750;10.570;2022-09-24T03:32:25;5.93;;;5.33;;
14778;SDS011;7481;53.750;10.570;2022-09-24T03:35:12;5.93;;;4.90;;
14778;SDS011;7481;53.750;10.570;2022-09-24T03:38:01;7.63;;;5.30;;
14778;SDS011;7481;53.750;10.570;2022-09-24T03:40:47;5.63;;;5.03;;
14778;SDS011;7481;53.750;10.570;2022-09-24T03:43:35;5.87;;;4.83;;
14778;SDS011;7481;53.750;10.570;2022-09-24T03:46:22;4.87;;;4.37;;
14778;SDS011;7481;53.750;10.570;2022-09-24T03:49:16;5.77;;;4.73;;
14778;SDS011;7481;53.750;10.570;2022-09-24T03:52:02;6.63;;;5.17;;
14778;SDS011;7481;53.750;10.570;2022-09-24T03:54:49;8.77;;;5.47;;
14778;SDS011;7481;53.750;10.570;2022-09-24T03:57:36;5.30;;;4.80;;
14778;SDS011;7481;53.750;10.570;2022-09-24T04:00:23;6.53;;;5.20;;
14778;SDS011;7481;53.750;10.570;2022-09-24T04:03:10;6.83;;;5.60;;
14778;SDS011;7481;53.750;10.570;2022-09-24T04:05:57;6.57;;;5.80;;
14778;SDS011;7481;53.750;10.570;2022-09-24T04:08:44;6.40;;;5.80;;
14778;SDS011;7481;53.750;10.570;2022-09-24T04:11:31;7.07;;;5.90;;
14778;SDS011;7481;53.750;10.570;2022-09-24T04:14:20;8.37;;;6.43;;
14778;SDS011;7481;53.750;10.570;2022-09-24T04:17:08;10.20;;;6.27;;
14778;SDS011;7481;53.750;10.570;2022-09-24T04:19:58;6.70;;;6.00;;
14778;SDS011;7481;53.750;10.570;2022-09-24T04:22:45;8.33;;;6.13;;
14778;SDS011;7481;53.750;10.570;2022-09-24T04:25:32;7.50;;;6.30;;
14778;SDS011;7481;53.750;10.570;2022-09-24T04:28:19;6.67;;;5.93;;
14778;SDS011;7481;53.750;10.570;2022-09-24T04:31:06;8.23;;;6.67;;
14778;SDS011;7481;53.750;10.570;2022-09-24T04:33:53;8.53;;;6.27;;
14778;SDS011;7481;53.750;10.570;2022-09-24T04:36:41;6.57;;;5.90;;
14778;SDS011;7481;53.750;10.570;2022-09-24T04:39:27;7.20;;;6.23;;
14778;SDS011;7481;53.750;10.570;2022-09-24T04:42:15;6.13;;;5.50;;
14778;SDS011;7481;53.750;10.570;2022-09-24T04:45:06;7.53;;;5.50;;
14778;SDS011;7481;53.750;10.570;2022-09-24T04:47:55;7.83;;;5.63;;
14778;SDS011;7481;53.750;10.570;2022-09-24T04:50:43;7.70;;;5.40;;
14778;SDS011;7481;53.750;10.570;2022-09-24T04:53:32;5.33;;;4.83;;
14778;SDS011;7481;53.750;10.570;2022-09-24T04:56:21;5.90;;;5.30;;
14778;SDS011;7481;53.750;10.570;2022-09-24T04:59:08;7.30;;;5.10;;
14778;SDS011;7481;53.750;10.570;2022-09-24T05:01:55;6.40;;;5.60;;
14778;SDS011;7481;53.750;10.570;2022-09-24T05:04:42;6.43;;;5.73;;
14778;SDS011;7481;53.750;10.570;2022-09-24T05:07:29;8.37;;;6.13;;
14778;SDS011;7481;53.750;10.570;2022-09-24T05:10:16;6.47;;;5.50;;
14778;SDS011;7481;53.750;10.570;2022-09-24T05:13:03;6.73;;;5.87;;
14778;SDS011;7481;53.750;10.570;2022-09-24T05:15:50;6.87;;;6.20;;
14778;SDS011;7481;53.750;10.570;2022-09-24T05:18:37;5.80;;;5.13;;
14778;SDS011;7481;53.750;10.570;2022-09-24T05:21:24;5.30;;;4.80;;
14778;SDS011;7481;53.750;10.570;2022-09-24T05:24:12;7.93;;;5.57;;
14778;SDS011;7481;53.750;10.570;2022-09-24T05:26:59;6.20;;;5.13;;
14778;SDS011;7481;53.750;10.570;2022-09-24T05:29:55;6.50;;;5.10;;
14778;SDS011;7481;53.750;10.570;2022-09-24T05:32:42;6.77;;;6.07;;
14778;SDS011;7481;53.750;10.570;2022-09-24T05:35:30;7.30;;;6.23;;
14778;SDS011;7481;53.750;10.570;2022-09-24T05:38:19;8.13;;;5.43;;
14778;SDS011;7481;53.750;10.570;2022-09-24T05:41:07;7.00;;;5.90;;
14778;SDS011;7481;53.750;10.570;2022-09-24T05:43:54;7.47;;;5.57;;
14778;SDS011;7481;53.750;10.570;2022-09-24T05:46:44;6.23;;;5.37;;
14778;SDS011;7481;53.750;10.570;2022-09-24T05:49:31;8.70;;;7.03;;
14778;SDS011;7481;53.750;10.570;2022-09-24T05:52:19;6.30;;;5.60;;
14778;SDS011;7481;53.750;10.570;2022-09-24T05:55:06;7.10;;;5.50;;
14778;SDS011;7481;53.750;10.570;2022-09-24T05:57:54;8.33;;;6.37;;
14778;SDS011;7481;53.750;10.570;2022-09-24T06:00:41;8.70;;;6.40;;
14778;SDS011;7481;53.750;10.570;2022-09-24T06:03:29;8.07;;;7.20;;
14778;SDS011;7481;53.750;10.570;2022-09-24T06:06:17;8.77;;;6.70;;
14778;SDS011;7481;53.750;10.570;2022-09-24T06:09:04;9.30;;;7.20;;
14778;SDS011;7481;53.750;10.570;2022-09-24T06:11:51;8.90;;;7.23;;
14778;SDS011;7481;53.750;10.570;2022-09-24T06:14:40;8.30;;;7.37;;
14778;SDS011;7481;53.750;10.570;2022-09-24T06:17:27;10.60;;;7.57;;
14778;SDS011;7481;53.750;10.570;2022-09-24T06:20:15;10.03;;;7.10;;
14778;SDS011;7481;53.750;10.570;2022-09-24T06:23:02;8.40;;;6.53;;
14778;SDS011;7481;53.750;10.570;2022-09-24T06:25:49;10.10;;;8.20;;
14778;SDS011;7481;53.750;10.570;2022-09-24T06:28:36;11.77;;;9.27;;
14778;SDS011;7481;53.750;10.570;2022-09-24T06:31:24;11.13;;;9.13;;
14778;SDS011;7481;53.750;10.570;2022-09-24T06:34:11;13.70;;;10.70;;
14778;SDS011;7481;53.750;10.570;2022-09-24T06:36:58;12.33;;;11.03;;
14778;SDS011;7481;53.750;10.570;2022-09-24T06:39:46;14.13;;;10.53;;
14778;SDS011;7481;53.750;10.570;2022-09-24T06:42:32;10.73;;;8.87;;
14778;SDS011;7481;53.750;10.570;2022-09-24T06:45:20;10.73;;;9.63;;
14778;SDS011;7481;53.750;10.570;2022-09-24T06:48:07;12.57;;;9.40;;
14778;SDS011;7481;53.750;10.570;2022-09-24T06:50:55;15.33;;;8.60;;
14778;SDS011;7481;53.750;10.570;2022-09-24T06:53:42;10.93;;;9.43;;
14778;SDS011;7481;53.750;10.570;2022-09-24T06:56:29;14.70;;;10.27;;
14778;SDS011;7481;53.750;10.570;2022-09-24T06:59:16;14.23;;;10.40;;
14778;SDS011;7481;53.750;10.570;2022-09-24T07:02:03;12.33;;;10.20;;
14778;SDS011;7481;53.750;10.570;2022-09-24T07:04:50;15.07;;;11.37;;
14778;SDS011;7481;53.750;10.570;2022-09-24T07:07:37;12.10;;;9.87;;
14778;SDS011;7481;53.750;10.570;2022-09-24T07:10:24;11.97;;;10.47;;
14778;SDS011;7481;53.750;10.570;2022-09-24T07:13:13;14.77;;;11.57;;
14778;SDS011;7481;53.750;10.570;2022-09-24T07:16:01;22.33;;;14.83;;
14778;SDS011;7481;53.750;10.570;2022-09-24T07:18:48;17.67;;;13.07;;
14778;SDS011;7481;53.750;10.570;2022-09-24T07:21:35;15.87;;;11.03;;
14778;SDS011;7481;53.750;10.570;2022-09-24T07:24:22;13.33;;;10.83;;
14778;SDS011;7481;53.750;10.570;2022-09-24T07:27:09;12.33;;;10.80;;
14778;SDS011;7481;53.750;10.570;2022-09-24T07:29:57;12.90;;;10.97;;
14778;SDS011;7481;53.750;10.570;2022-09-24T07:32:44;13.47;;;11.17;;
14778;SDS011;7481;53.750;10.570;2022-09-24T07:35:31;12.33;;;10.13;;
14778;SDS011;7481;53.750;10.570;2022-09-24T07:38:18;16.40;;;12.90;;
14778;SDS011;7481;53.750;10.570;2022-09-24T07:41:05;17.07;;;12.30;;
14778;SDS011;7481;53.750;10.570;2022-09-24T07:43:54;16.13;;;12.73;;
14778;SDS011;7481;53.750;10.570;2022-09-24T07:46:41;15.20;;;11.30;;
14778;SDS011;7481;53.750;10.570;2022-09-24T07:49:28;16.50;;;11.23;;
14778;SDS011;7481;53.750;10.570;2022-09-24T07:52:18;15.90;;;12.03;;
14778;SDS011;7481;53.750;10.570;2022-09-24T07:55:05;21.00;;;11.60;;
14778;SDS011;7481;53.750;10.570;2022-09-24T07:57:53;14.07;;;12.03;;
14778;SDS011;7481;53.750;10.570;2022-09-24T08:00:41;17.17;;;12.20;;
14778;SDS011;7481;53.750;10.570;2022-09-24T08:03:28;18.07;;;11.33;;
14778;SDS011;7481;53.750;10.570;2022-09-24T08:06:15;14.93;;;11.90;;
14778;SDS011;7481;53.750;10.570;2022-09-24T08:09:02;14.63;;;11.57;;
14778;SDS011;7481;53.750;10.570;2022-09-24T08:11:50;12.50;;;10.50;;
14778;SDS011;7481;53.750;10.570;2022-09-24T08:14:36;14.83;;;11.60;;
14778;SDS011;7481;53.750;10.570;2022-09-24T08:17:23;12.97;;;11.00;;
14778;SDS011;7481;53.750;10.570;2022-09-24T08:20:10;11.30;;;9.57;;
14778;SDS011;7481;53.750;10.570;2022-09-24T08:23:01;13.13;;;10.30;;
14778;SDS011;7481;53.750;10.570;2022-09-24T08:25:52;12.20;;;10.13;;
14778;SDS011;7481;53.750;10.570;2022-09-24T08:28:40;11.57;;;9.03;;
14778;SDS011;7481;53.750;10.570;2022-09-24T08:31:27;11.10;;;8.63;;
14778;SDS011;7481;53.750;10.570;2022-09-24T08:34:14;12.43;;;8.83;;
14778;SDS011;7481;53.750;10.570;2022-09-24T08:37:01;9.57;;;8.57;;
14778;SDS011;7481;53.750;10.570;2022-09-24T08:39:49;8.70;;;7.80;;
14778;SDS011;7481;53.750;10.570;2022-09-24T08:42:40;12.10;;;8.70;;
14778;SDS011;7481;53.750;10.570;2022-09-24T08:45:54;10.97;;;8.90;;
14778;SDS011;7481;53.750;10.570;2022-09-24T08:49:03;11.90;;;8.73;;
14778;SDS011;7481;53.750;10.570;2022-09-24T08:51:58;11.17;;;9.10;;
14778;SDS011;7481;53.750;10.570;2022-09-24T08:54:50;12.23;;;9.10;;
14778;SDS011;7481;53.750;10.570;2022-09-24T09:04:20;14.63;;;11.30;;
14778;SDS011;7481;53.750;10.570;2022-09-24T09:07:24;13.80;;;11.27;;
14778;SDS011;7481;53.750;10.570;2022-09-24T09:10:37;15.47;;;11.70;;
14778;SDS011;7481;53.750;10.570;2022-09-24T09:13:27;16.77;;;12.43;;
14778;SDS011;7481;53.750;10.570;2022-09-24T09:16:22;16.57;;;12.00;;
14778;SDS011;7481;53.750;10.570;2022-09-24T09:19:13;17.87;;;13.97;;
14778;SDS011;7481;53.750;10.570;2022-09-24T09:22:12;12.97;;;10.90;;
14778;SDS011;7481;53.750;10.570;2022-09-24T09:25:13;16.27;;;12.90;;
14778;SDS011;7481;53.750;10.570;2022-09-24T09:28:12;17.07;;;12.70;;
14778;SDS011;7481;53.750;10.570;2022-09-24T09:34:33;16.50;;;12.30;;
14778;SDS011;7481;53.750;10.570;2022-09-24T09:37:48;16.80;;;12.90;;
14778;SDS011;7481;53.750;10.570;2022-09-24T09:40:43;18.97;;;13.90;;
14778;SDS011;7481;53.750;10.570;2022-09-24T09:43:35;21.00;;;14.47;;
14778;SDS011;7481;53.750;10.570;2022-09-24T09:46:26;17.37;;;13.87;;
14778;SDS011;7481;53.750;10.570;2022-09-24T09:49:18;17.87;;;14.00;;
14778;SDS011;7481;53.750;10.570;2022-09-24T09:52:14;19.53;;;13.80;;
14778;SDS011;7481;53.750;10.570;2022-09-24T09:55:05;21.60;;;14.27;;
14778;SDS011;7481;53.750;10.570;2022-09-24T09:57:52;21.03;;;14.40;;
14778;SDS011;7481;53.750;10.570;2022-09-24T10:01:02;23.50;;;15.57;;
14778;SDS011;7481;53.750;10.570;2022-09-24T10:03:52;19.37;;;14.97;;
14778;SDS011;7481;53.750;10.570;2022-09-24T10:06:41;22.67;;;16.47;;
14778;SDS011;7481;53.750;10.570;2022-09-24T10:09:28;21.47;;;15.17;;
14778;SDS011;7481;53.750;10.570;2022-09-24T10:12:15;18.67;;;14.07;;
14778;SDS011;7481;53.750;10.570;2022-09-24T10:15:13;19.60;;;13.70;;
14778;SDS011;7481;53.750;10.570;2022-09-24T10:18:01;17.23;;;13.43;;
14778;SDS011;7481;53.750;10.570;2022-09-24T10:20:48;18.83;;;13.10;;
14778;SDS011;7481;53.750;10.570;2022-09-24T10:23:40;19.50;;;13.57;;
14778;SDS011;7481;53.750;10.570;2022-09-24T10:26:35;18.17;;;13.77;;
14778;SDS011;7481;53.750;10.570;2022-09-24T10:29:30;21.63;;;13.30;;
14778;SDS011;7481;53.750;10.570;2022-09-24T10:32:38;19.93;;;14.87;;
14778;SDS011;7481;53.750;10.570;2022-09-24T10:38:20;20.07;;;14.77;;
14778;SDS011;7481;53.750;10.570;2022-09-24T10:41:29;18.07;;;13.47;;
14778;SDS011;7481;53.750;10.570;2022-09-24T10:44:17;21.37;;;15.83;;
14778;SDS011;7481;53.750;10.570;2022-09-24T10:50:17;20.07;;;13.90;;
14778;SDS011;7481;53.750;10.570;2022-09-24T10:53:12;19.53;;;14.30;;
14778;SDS011;7481;53.750;10.570;2022-09-24T10:56:15;22.00;;;15.43;;
14778;SDS011;7481;53.750;10.570;2022-09-24T11:02:39;21.47;;;14.97;;
14778;SDS011;7481;53.750;10.570;2022-09-24T11:09:06;19.47;;;15.13;;
14778;SDS011;7481;53.750;10.570;2022-09-24T11:12:13;23.30;;;15.93;;
14778;SDS011;7481;53.750;10.570;2022-09-24T11:22:02;25.90;;;15.10;;
14778;SDS011;7481;53.750;10.570;2022-09-24T11:25:10;20.90;;;15.43;;
14778;SDS011;7481;53.750;10.570;2022-09-24T11:28:34;18.50;;;14.37;;
14778;SDS011;7481;53.750;10.570;2022-09-24T11:44:06;19.97;;;14.10;;
14778;SDS011;7481;53.750;10.570;2022-09-24T11:47:26;18.57;;;14.07;;
14778;SDS011;7481;53.750;10.570;2022-09-24T11:50:49;15.90;;;13.57;;
14778;SDS011;7481;53.750;10.570;2022-09-24T11:53:45;16.47;;;13.10;;
14778;SDS011;7481;53.750;10.570;2022-09-24T11:56:41;17.60;;;12.67;;
14778;SDS011;7481;53.750;10.570;2022-09-24T11:59:37;18.57;;;14.03;;
14778;SDS011;7481;53.750;10.570;2022-09-24T12:02:36;15.57;;;12.33;;
14778;SDS011;7481;53.750;10.570;2022-09-24T12:08:50;17.27;;;12.67;;
14778;SDS011;7481;53.750;10.570;2022-09-24T12:11:46;17.17;;;13.33;;
14778;SDS011;7481;53.750;10.570;2022-09-24T12:17:37;15.93;;;12.90;;
14778;SDS011;7481;53.750;10.570;2022-09-24T12:20:31;16.53;;;13.90;;
14778;SDS011;7481;53.750;10.570;2022-09-24T12:23:28;17.17;;;13.53;;
14778;SDS011;7481;53.750;10.570;2022-09-24T12:26:19;17.60;;;14.13;;
14778;SDS011;7481;53.750;10.570;2022-09-24T12:29:15;20.60;;;15.47;;
14778;SDS011;7481;53.750;10.570;2022-09-24T12:36:03;18.97;;;14.80;;
14778;SDS011;7481;53.750;10.570;2022-09-24T12:39:09;20.07;;;15.60;;
14778;SDS011;7481;53.750;10.570;2022-09-24T12:42:01;17.77;;;13.87;;
14778;SDS011;7481;53.750;10.570;2022-09-24T12:44:52;16.07;;;13.73;;
14778;SDS011;7481;53.750;10.570;2022-09-24T12:47:47;28.50;;;19.53;;
14778;SDS011;7481;53.750;10.570;2022-09-24T12:50:39;35.23;;;21.03;;
14778;SDS011;7481;53.750;10.570;2022-09-24T12:53:28;26.97;;;17.80;;
14778;SDS011;7481;53.750;10.570;2022-09-24T12:56:22;29.77;;;19.97;;
14778;SDS011;7481;53.750;10.570;2022-09-24T12:59:25;20.83;;;16.07;;
14778;SDS011;7481;53.750;10.570;2022-09-24T13:02:29;19.60;;;15.13;;
14778;SDS011;7481;53.750;10.570;2022-09-24T13:05:47;21.30;;;15.97;;
14778;SDS011;7481;53.750;10.570;2022-09-24T13:08:35;19.40;;;15.70;;
14778;SDS011;7481;53.750;10.570;2022-09-24T13:11:33;19.87;;;14.93;;
14778;SDS011;7481;53.750;10.570;2022-09-24T13:14:23;16.63;;;14.43;;
14778;SDS011;7481;53.750;10.570;2022-09-24T13:17:14;19.13;;;14.70;;
14778;SDS011;7481;53.750;10.570;2022-09-24T13:20:07;20.07;;;15.67;;
14778;SDS011;7481;53.750;10.570;2022-09-24T13:26:28;20.10;;;16.60;;
14778;SDS011;7481;53.750;10.570;2022-09-24T13:29:21;21.53;;;16.10;;
14778;SDS011;7481;53.750;10.570;2022-09-24T13:32:10;19.73;;;15.70;;
14778;SDS011;7481;53.750;10.570;2022-09-24T13:35:05;23.13;;;17.83;;
14778;SDS011;7481;53.750;10.570;2022-09-24T13:38:06;19.57;;;15.77;;
14778;SDS011;7481;53.750;10.570;2022-09-24T13:44:29;20.03;;;16.57;;
14778;SDS011;7481;53.750;10.570;2022-09-24T13:47:29;18.30;;;14.83;;
14778;SDS011;7481;53.750;10.570;2022-09-24T13:50:29;19.20;;;15.27;;
14778;SDS011;7481;53.750;10.570;2022-09-24T13:56:22;18.10;;;14.97;;
14778;SDS011;7481;53.750;10.570;2022-09-24T13:59:10;19.03;;;15.10;;
14778;SDS011;7481;53.750;10.570;2022-09-24T14:01:58;19.17;;;15.57;;
14778;SDS011;7481;53.750;10.570;2022-09-24T14:04:45;19.60;;;16.00;;
14778;SDS011;7481;53.750;10.570;2022-09-24T14:07:32;18.97;;;15.43;;
14778;SDS011;7481;53.750;10.570;2022-09-24T14:10:19;20.97;;;17.20;;
14778;SDS011;7481;53.750;10.570;2022-09-24T14:16:07;20.63;;;16.37;;
14778;SDS011;7481;53.750;10.570;2022-09-24T14:19:00;24.00;;;18.23;;
14778;SDS011;7481;53.750;10.570;2022-09-24T14:21:49;21.87;;;17.60;;
14778;SDS011;7481;53.750;10.570;2022-09-24T14:24:42;22.23;;;17.27;;
14778;SDS011;7481;53.750;10.570;2022-09-24T14:27:35;22.90;;;16.87;;
14778;SDS011;7481;53.750;10.570;2022-09-24T14:30:28;21.13;;;17.03;;
14778;SDS011;7481;53.750;10.570;2022-09-24T14:33:19;18.80;;;16.77;;
14778;SDS011;7481;53.750;10.570;2022-09-24T14:36:11;20.23;;;15.07;;
14778;SDS011;7481;53.750;10.570;2022-09-24T14:39:00;19.10;;;15.80;;
14778;SDS011;7481;53.750;10.570;2022-09-24T14:41:50;18.07;;;15.13;;
14778;SDS011;7481;53.750;10.570;2022-09-24T14:44:39;18.83;;;15.67;;
14778;SDS011;7481;53.750;10.570;2022-09-24T14:47:32;18.30;;;15.37;;
14778;SDS011;7481;53.750;10.570;2022-09-24T14:50:27;17.80;;;15.10;;
14778;SDS011;7481;53.750;10.570;2022-09-24T14:53:22;20.67;;;17.77;;
14778;SDS011;7481;53.750;10.570;2022-09-24T14:56:19;20.97;;;17.00;;
14778;SDS011;7481;53.750;10.570;2022-09-24T14:59:24;20.77;;;17.33;;
14778;SDS011;7481;53.750;10.570;2022-09-24T15:02:18;19.30;;;16.67;;
14778;SDS011;7481;53.750;10.570;2022-09-24T15:05:08;21.80;;;17.03;;
14778;SDS011;7481;53.750;10.570;2022-09-24T15:11:16;22.33;;;18.07;;
14778;SDS011;7481;53.750;10.570;2022-09-24T15:14:11;21.37;;;18.53;;
14778;SDS011;7481;53.750;10.570;2022-09-24T15:17:21;19.80;;;17.30;;
14778;SDS011;7481;53.750;10.570;2022-09-24T15:20:09;23.33;;;18.90;;
14778;SDS011;7481;53.750;10.570;2022-09-24T15:22:57;23.20;;;19.70;;
14778;SDS011;7481;53.750;10.570;2022-09-24T15:25:44;23.93;;;17.93;;
14778;SDS011;7481;53.750;10.570;2022-09-24T15:28:31;22.63;;;19.37;;
14778;SDS011;7481;53.750;10.570;2022-09-24T15:31:18;26.77;;;21.20;;
14778;SDS011;7481;53.750;10.570;2022-09-24T15:34:05;23.03;;;18.50;;
14778;SDS011;7481;53.750;10.570;2022-09-24T15:36:55;21.10;;;17.77;;
14778;SDS011;7481;53.750;10.570;2022-09-24T15:39:47;22.40;;;18.80;;
14778;SDS011;7481;53.750;10.570;2022-09-24T15:42:35;24.50;;;20.10;;
14778;SDS011;7481;53.750;10.570;2022-09-24T15:45:22;23.80;;;19.13;;
14778;SDS011;7481;53.750;10.570;2022-09-24T15:48:10;24.80;;;19.93;;
14778;SDS011;7481;53.750;10.570;2022-09-24T15:50:57;22.63;;;19.67;;
14778;SDS011;7481;53.750;10.570;2022-09-24T15:53:54;23.87;;;20.60;;
14778;SDS011;7481;53.750;10.570;2022-09-24T15:56:41;25.90;;;20.10;;
14778;SDS011;7481;53.750;10.570;2022-09-24T15:59:29;25.00;;;20.47;;
14778;SDS011;7481;53.750;10.570;2022-09-24T16:02:17;24.83;;;19.70;;
14778;SDS011;7481;53.750;10.570;2022-09-24T16:05:09;27.10;;;20.10;;
14778;SDS011;7481;53.750;10.570;2022-09-24T16:07:58;27.60;;;20.20;;
14778;SDS011;7481;53.750;10.570;2022-09-24T16:10:45;23.33;;;19.03;;
14778;SDS011;7481;53.750;10.570;2022-09-24T16:13:32;26.03;;;20.63;;
14778;SDS011;7481;53.750;10.570;2022-09-24T16:16:20;24.37;;;20.53;;
14778;SDS011;7481;53.750;10.570;2022-09-24T16:19:07;24.33;;;20.17;;
14778;SDS011;7481;53.750;10.570;2022-09-24T16:21:54;28.47;;;20.47;;
14778;SDS011;7481;53.750;10.570;2022-09-24T16:24:41;26.40;;;21.27;;
14778;SDS011;7481;53.750;10.570;2022-09-24T16:27:29;24.67;;;19.43;;
14778;SDS011;7481;53.750;10.570;2022-09-24T16:30:16;23.40;;;19.37;;
14778;SDS011;7481;53.750;10.570;2022-09-24T16:33:03;24.17;;;20.33;;
14778;SDS011;7481;53.750;10.570;2022-09-24T16:35:50;24.90;;;20.50;;
14778;SDS011;7481;53.750;10.570;2022-09-24T16:38:38;25.87;;;19.83;;
14778;SDS011;7481;53.750;10.570;2022-09-24T16:41:25;24.00;;;19.83;;
14778;SDS011;7481;53.750;10.570;2022-09-24T16:44:12;25.80;;;20.03;;
14778;SDS011;7481;53.750;10.570;2022-09-24T16:47:00;24.13;;;19.43;;
14778;SDS011;7481;53.750;10.570;2022-09-24T16:49:47;22.17;;;18.07;;
14778;SDS011;7481;53.750;10.570;2022-09-24T16:52:34;22.13;;;17.97;;
14778;SDS011;7481;53.750;10.570;2022-09-24T16:55:21;28.27;;;20.60;;
14778;SDS011;7481;53.750;10.570;2022-09-24T16:58:09;25.37;;;19.93;;
14778;SDS011;7481;53.750;10.570;2022-09-24T17:00:56;25.10;;;19.67;;
14778;SDS011;7481;53.750;10.570;2022-09-24T17:03:43;24.60;;;21.27;;
14778;SDS011;7481;53.750;10.570;2022-09-24T17:06:35;24.37;;;20.47;;
14778;SDS011;7481;53.750;10.570;2022-09-24T17:09:23;22.77;;;18.97;;
14778;SDS011;7481;53.750;10.570;2022-09-24T17:12:28;24.97;;;20.43;;
14778;SDS011;7481;53.750;10.570;2022-09-24T17:15:19;26.47;;;20.40;;
14778;SDS011;7481;53.750;10.570;2022-09-24T17:18:06;21.20;;;18.60;;
14778;SDS011;7481;53.750;10.570;2022-09-24T17:21:02;24.73;;;19.07;;
14778;SDS011;7481;53.750;10.570;2022-09-24T17:23:51;23.00;;;19.30;;
14778;SDS011;7481;53.750;10.570;2022-09-24T17:26:38;28.90;;;22.87;;
14778;SDS011;7481;53.750;10.570;2022-09-24T17:29:25;27.00;;;20.77;;
14778;SDS011;7481;53.750;10.570;2022-09-24T17:32:17;23.00;;;18.83;;
14778;SDS011;7481;53.750;10.570;2022-09-24T17:35:04;24.43;;;20.60;;
14778;SDS011;7481;53.750;10.570;2022-09-24T17:37:53;24.97;;;21.10;;
14778;SDS011;7481;53.750;10.570;2022-09-24T17:40:40;24.80;;;20.03;;
14778;SDS011;7481;53.750;10.570;2022-09-24T17:43:27;24.50;;;20.80;;
14778;SDS011;7481;53.750;10.570;2022-09-24T17:46:15;27.30;;;21.80;;
14778;SDS011;7481;53.750;10.570;2022-09-24T17:49:08;26.60;;;21.23;;
14778;SDS011;7481;53.750;10.570;2022-09-24T17:51:56;24.37;;;19.50;;
14778;SDS011;7481;53.750;10.570;2022-09-24T17:54:46;25.17;;;20.90;;
14778;SDS011;7481;53.750;10.570;2022-09-24T17:57:33;26.57;;;19.60;;
14778;SDS011;7481;53.750;10.570;2022-09-24T18:00:21;27.97;;;21.33;;
14778;SDS011;7481;53.750;10.570;2022-09-24T18:03:08;25.73;;;19.53;;
14778;SDS011;7481;53.750;10.570;2022-09-24T18:06:02;30.33;;;22.97;;
14778;SDS011;7481;53.750;10.570;2022-09-24T18:08:51;24.03;;;18.57;;
14778;SDS011;7481;53.750;10.570;2022-09-24T18:11:42;24.60;;;18.57;;
14778;SDS011;7481;53.750;10.570;2022-09-24T18:14:31;24.97;;;18.77;;